sensor_id;sensor_type;location;lat;lon;timestamp;P1;durP1;ratioP1;P2;durP2;ratioP2
6828;SDS011;17930;48.592;8.868;2022-09-12T00:02:21;15.57;;;9.53;;
6828;SDS011;17930;48.592;8.868;2022-09-12T00:04:48;14.40;;;10.47;;
6828;SDS011;17930;48.592;8.868;2022-09-12T00:07:17;13.07;;;10.30;;
6828;SDS011;17930;48.592;8.868;2022-09-12T00:09:43;15.07;;;10.47;;
6828;SDS011;17930;48.592;8.868;2022-09-12T00:12:10;13.03;;;10.27;;
6828;SDS011;17930;48.592;8.868;2022-09-12T00:14:37;13.37;;;9.97;;
6828;SDS011;17930;48.592;8.868;2022-09-12T00:17:03;15.23;;;9.50;;
6828;SDS011;17930;48.592;8.868;2022-09-12T00:19:30;16.77;;;9.97;;
6828;SDS011;17930;48.592;8.868;2022-09-12T00:21:56;12.90;;;9.50;;
6828;SDS011;17930;48.592;8.868;2022-09-12T00:24:24;14.33;;;9.20;;
6828;SDS011;17930;48.592;8.868;2022-09-12T00:26:51;15.30;;;10.27;;
6828;SDS011;17930;48.592;8.868;2022-09-12T00:29:19;17.17;;;10.50;;
6828;SDS011;17930;48.592;8.868;2022-09-12T00:31:46;15.70;;;9.47;;
6828;SDS011;17930;48.592;8.868;2022-09-12T00:34:13;13.50;;;9.67;;
6828;SDS011;17930;48.592;8.868;2022-09-12T00:37:09;15.87;;;10.70;;
6828;SDS011;17930;48.592;8.868;2022-09-12T00:39:37;16.10;;;9.90;;
6828;SDS011;17930;48.592;8.868;2022-09-12T00:42:04;16.93;;;9.70;;
6828;SDS011;17930;48.592;8.868;2022-09-12T00:44:47;14.87;;;9.67;;
6828;SDS011;17930;48.592;8.868;2022-09-12T00:47:17;12.43;;;9.43;;
6828;SDS011;17930;48.592;8.868;2022-09-12T00:49:49;15.00;;;10.23;;
6828;SDS011;17930;48.592;8.868;2022-09-12T00:52:21;16.10;;;10.13;;
6828;SDS011;17930;48.592;8.868;2022-09-12T00:54:54;14.17;;;10.10;;
6828;SDS011;17930;48.592;8.868;2022-09-12T00:57:26;17.30;;;11.33;;
6828;SDS011;17930;48.592;8.868;2022-09-12T00:59:57;17.00;;;10.97;;
6828;SDS011;17930;48.592;8.868;2022-09-12T01:02:29;15.77;;;10.77;;
6828;SDS011;17930;48.592;8.868;2022-09-12T01:04:56;17.40;;;11.47;;
6828;SDS011;17930;48.592;8.868;2022-09-12T01:07:22;15.27;;;10.97;;
6828;SDS011;17930;48.592;8.868;2022-09-12T01:09:49;16.63;;;10.33;;
6828;SDS011;17930;48.592;8.868;2022-09-12T01:12:17;16.93;;;10.23;;
6828;SDS011;17930;48.592;8.868;2022-09-12T01:14:44;17.33;;;10.47;;
6828;SDS011;17930;48.592;8.868;2022-09-12T01:17:11;15.80;;;10.63;;
6828;SDS011;17930;48.592;8.868;2022-09-12T01:22:59;21.53;;;9.90;;
6828;SDS011;17930;48.592;8.868;2022-09-12T01:25:37;16.60;;;10.97;;
6828;SDS011;17930;48.592;8.868;2022-09-12T01:28:20;16.47;;;11.23;;
6828;SDS011;17930;48.592;8.868;2022-09-12T01:31:03;16.97;;;11.03;;
6828;SDS011;17930;48.592;8.868;2022-09-12T01:33:35;18.17;;;11.60;;
6828;SDS011;17930;48.592;8.868;2022-09-12T01:36:27;21.03;;;11.53;;
6828;SDS011;17930;48.592;8.868;2022-09-12T01:39:00;16.83;;;11.37;;
6828;SDS011;17930;48.592;8.868;2022-09-12T01:41:30;18.00;;;11.97;;
6828;SDS011;17930;48.592;8.868;2022-09-12T01:44:08;20.40;;;12.13;;
6828;SDS011;17930;48.592;8.868;2022-09-12T01:46:46;18.07;;;11.00;;
6828;SDS011;17930;48.592;8.868;2022-09-12T01:49:19;15.53;;;10.27;;
6828;SDS011;17930;48.592;8.868;2022-09-12T01:51:52;15.53;;;10.77;;
6828;SDS011;17930;48.592;8.868;2022-09-12T01:54:26;15.50;;;10.27;;
6828;SDS011;17930;48.592;8.868;2022-09-12T01:56:58;16.47;;;11.03;;
6828;SDS011;17930;48.592;8.868;2022-09-12T01:59:29;14.07;;;9.70;;
6828;SDS011;17930;48.592;8.868;2022-09-12T02:02:03;18.13;;;10.83;;
6828;SDS011;17930;48.592;8.868;2022-09-12T02:04:34;14.43;;;9.97;;
6828;SDS011;17930;48.592;8.868;2022-09-12T02:07:07;16.63;;;11.07;;
6828;SDS011;17930;48.592;8.868;2022-09-12T02:09:40;16.53;;;10.30;;
6828;SDS011;17930;48.592;8.868;2022-09-12T02:12:12;17.43;;;10.80;;
6828;SDS011;17930;48.592;8.868;2022-09-12T02:14:44;20.80;;;11.53;;
6828;SDS011;17930;48.592;8.868;2022-09-12T02:17:18;17.10;;;11.13;;
6828;SDS011;17930;48.592;8.868;2022-09-12T02:19:48;15.47;;;11.13;;
6828;SDS011;17930;48.592;8.868;2022-09-12T02:22:18;16.03;;;10.50;;
6828;SDS011;17930;48.592;8.868;2022-09-12T02:24:49;15.67;;;10.60;;
6828;SDS011;17930;48.592;8.868;2022-09-12T02:27:20;16.37;;;9.50;;
6828;SDS011;17930;48.592;8.868;2022-09-12T02:29:49;15.17;;;9.83;;
6828;SDS011;17930;48.592;8.868;2022-09-12T02:32:19;18.63;;;11.33;;
6828;SDS011;17930;48.592;8.868;2022-09-12T02:34:53;15.03;;;9.90;;
6828;SDS011;17930;48.592;8.868;2022-09-12T02:37:28;16.00;;;10.07;;
6828;SDS011;17930;48.592;8.868;2022-09-12T02:40:03;14.97;;;10.33;;
6828;SDS011;17930;48.592;8.868;2022-09-12T02:42:31;16.07;;;10.13;;
6828;SDS011;17930;48.592;8.868;2022-09-12T02:44:58;14.30;;;9.73;;
6828;SDS011;17930;48.592;8.868;2022-09-12T02:47:27;15.27;;;10.63;;
6828;SDS011;17930;48.592;8.868;2022-09-12T02:49:56;18.27;;;11.10;;
6828;SDS011;17930;48.592;8.868;2022-09-12T02:52:24;18.30;;;11.13;;
6828;SDS011;17930;48.592;8.868;2022-09-12T02:54:52;17.27;;;11.33;;
6828;SDS011;17930;48.592;8.868;2022-09-12T02:57:20;18.83;;;11.43;;
6828;SDS011;17930;48.592;8.868;2022-09-12T02:59:47;18.00;;;11.67;;
6828;SDS011;17930;48.592;8.868;2022-09-12T03:02:20;18.50;;;10.83;;
6828;SDS011;17930;48.592;8.868;2022-09-12T03:08:00;22.33;;;11.00;;
6828;SDS011;17930;48.592;8.868;2022-09-12T03:10:39;15.90;;;10.10;;
6828;SDS011;17930;48.592;8.868;2022-09-12T03:13:16;15.90;;;10.40;;
6828;SDS011;17930;48.592;8.868;2022-09-12T03:15:51;18.20;;;11.10;;
6828;SDS011;17930;48.592;8.868;2022-09-12T03:18:28;16.43;;;10.57;;
6828;SDS011;17930;48.592;8.868;2022-09-12T03:21:07;17.63;;;9.97;;
6828;SDS011;17930;48.592;8.868;2022-09-12T03:23:40;16.80;;;10.27;;
6828;SDS011;17930;48.592;8.868;2022-09-12T03:26:15;16.37;;;10.10;;
6828;SDS011;17930;48.592;8.868;2022-09-12T03:28:48;14.63;;;9.77;;
6828;SDS011;17930;48.592;8.868;2022-09-12T03:31:16;19.63;;;12.23;;
6828;SDS011;17930;48.592;8.868;2022-09-12T03:33:46;18.57;;;11.17;;
6828;SDS011;17930;48.592;8.868;2022-09-12T03:36:13;14.40;;;9.77;;
6828;SDS011;17930;48.592;8.868;2022-09-12T03:38:42;16.50;;;10.00;;
6828;SDS011;17930;48.592;8.868;2022-09-12T03:41:09;15.37;;;9.60;;
6828;SDS011;17930;48.592;8.868;2022-09-12T03:43:35;15.97;;;10.00;;
6828;SDS011;17930;48.592;8.868;2022-09-12T03:46:02;15.07;;;10.10;;
6828;SDS011;17930;48.592;8.868;2022-09-12T03:48:29;16.07;;;9.97;;
6828;SDS011;17930;48.592;8.868;2022-09-12T03:50:59;16.90;;;9.70;;
6828;SDS011;17930;48.592;8.868;2022-09-12T03:53:27;15.60;;;9.40;;
6828;SDS011;17930;48.592;8.868;2022-09-12T03:55:54;15.47;;;9.80;;
6828;SDS011;17930;48.592;8.868;2022-09-12T03:58:20;18.03;;;10.47;;
6828;SDS011;17930;48.592;8.868;2022-09-12T04:00:47;15.93;;;10.23;;
6828;SDS011;17930;48.592;8.868;2022-09-12T04:03:14;17.83;;;10.10;;
6828;SDS011;17930;48.592;8.868;2022-09-12T04:05:40;17.00;;;9.67;;
6828;SDS011;17930;48.592;8.868;2022-09-12T04:08:08;16.90;;;10.77;;
6828;SDS011;17930;48.592;8.868;2022-09-12T04:10:43;15.83;;;10.00;;
6828;SDS011;17930;48.592;8.868;2022-09-12T04:13:10;17.77;;;10.50;;
6828;SDS011;17930;48.592;8.868;2022-09-12T04:15:37;19.60;;;10.47;;
6828;SDS011;17930;48.592;8.868;2022-09-12T04:18:03;16.07;;;10.33;;
6828;SDS011;17930;48.592;8.868;2022-09-12T04:20:30;16.50;;;10.43;;
6828;SDS011;17930;48.592;8.868;2022-09-12T04:22:57;17.67;;;10.10;;
6828;SDS011;17930;48.592;8.868;2022-09-12T04:25:25;16.23;;;9.33;;
6828;SDS011;17930;48.592;8.868;2022-09-12T04:27:52;19.13;;;10.67;;
6828;SDS011;17930;48.592;8.868;2022-09-12T04:30:19;17.67;;;10.80;;
6828;SDS011;17930;48.592;8.868;2022-09-12T04:32:45;17.27;;;10.30;;
6828;SDS011;17930;48.592;8.868;2022-09-12T04:35:12;17.73;;;9.77;;
6828;SDS011;17930;48.592;8.868;2022-09-12T04:37:39;16.30;;;9.33;;
6828;SDS011;17930;48.592;8.868;2022-09-12T04:40:06;14.87;;;10.57;;
6828;SDS011;17930;48.592;8.868;2022-09-12T04:42:34;12.57;;;8.87;;
6828;SDS011;17930;48.592;8.868;2022-09-12T04:45:01;14.73;;;10.03;;
6828;SDS011;17930;48.592;8.868;2022-09-12T04:47:28;14.90;;;10.03;;
6828;SDS011;17930;48.592;8.868;2022-09-12T04:49:54;14.60;;;10.33;;
6828;SDS011;17930;48.592;8.868;2022-09-12T04:52:21;15.80;;;10.50;;
6828;SDS011;17930;48.592;8.868;2022-09-12T04:54:47;20.50;;;12.10;;
6828;SDS011;17930;48.592;8.868;2022-09-12T04:57:14;32.97;;;15.10;;
6828;SDS011;17930;48.592;8.868;2022-09-12T04:59:42;25.90;;;14.53;;
6828;SDS011;17930;48.592;8.868;2022-09-12T05:02:09;25.67;;;13.93;;
6828;SDS011;17930;48.592;8.868;2022-09-12T05:04:36;31.17;;;14.73;;
6828;SDS011;17930;48.592;8.868;2022-09-12T05:07:02;32.43;;;14.70;;
6828;SDS011;17930;48.592;8.868;2022-09-12T05:09:29;28.93;;;14.70;;
6828;SDS011;17930;48.592;8.868;2022-09-12T05:11:56;31.60;;;15.07;;
6828;SDS011;17930;48.592;8.868;2022-09-12T05:14:23;40.67;;;16.57;;
6828;SDS011;17930;48.592;8.868;2022-09-12T05:16:51;37.97;;;15.40;;
6828;SDS011;17930;48.592;8.868;2022-09-12T05:19:18;45.63;;;16.63;;
6828;SDS011;17930;48.592;8.868;2022-09-12T05:21:44;45.47;;;16.27;;
6828;SDS011;17930;48.592;8.868;2022-09-12T05:24:11;40.90;;;15.97;;
6828;SDS011;17930;48.592;8.868;2022-09-12T05:26:37;35.90;;;14.87;;
6828;SDS011;17930;48.592;8.868;2022-09-12T05:29:04;27.20;;;14.17;;
6828;SDS011;17930;48.592;8.868;2022-09-12T05:31:31;28.80;;;14.53;;
6828;SDS011;17930;48.592;8.868;2022-09-12T05:33:59;33.23;;;15.30;;
6828;SDS011;17930;48.592;8.868;2022-09-12T05:36:29;33.10;;;15.10;;
6828;SDS011;17930;48.592;8.868;2022-09-12T05:38:56;28.37;;;14.00;;
6828;SDS011;17930;48.592;8.868;2022-09-12T05:41:25;34.20;;;15.53;;
6828;SDS011;17930;48.592;8.868;2022-09-12T05:43:53;30.00;;;14.43;;
6828;SDS011;17930;48.592;8.868;2022-09-12T05:46:22;38.37;;;14.80;;
6828;SDS011;17930;48.592;8.868;2022-09-12T05:48:51;33.50;;;15.00;;
6828;SDS011;17930;48.592;8.868;2022-09-12T05:51:21;39.33;;;15.33;;
6828;SDS011;17930;48.592;8.868;2022-09-12T05:53:50;54.47;;;17.20;;
6828;SDS011;17930;48.592;8.868;2022-09-12T05:56:19;48.87;;;16.30;;
6828;SDS011;17930;48.592;8.868;2022-09-12T05:58:52;47.30;;;15.97;;
6828;SDS011;17930;48.592;8.868;2022-09-12T06:01:20;125.57;;;20.73;;
6828;SDS011;17930;48.592;8.868;2022-09-12T06:03:48;65.37;;;18.17;;
6828;SDS011;17930;48.592;8.868;2022-09-12T06:06:18;60.17;;;16.07;;
6828;SDS011;17930;48.592;8.868;2022-09-12T06:08:48;84.20;;;18.30;;
6828;SDS011;17930;48.592;8.868;2022-09-12T06:11:16;51.50;;;16.47;;
6828;SDS011;17930;48.592;8.868;2022-09-12T06:13:44;127.93;;;19.93;;
6828;SDS011;17930;48.592;8.868;2022-09-12T06:16:12;136.27;;;19.17;;
6828;SDS011;17930;48.592;8.868;2022-09-12T06:18:40;87.70;;;16.37;;
6828;SDS011;17930;48.592;8.868;2022-09-12T06:21:08;87.17;;;16.33;;
6828;SDS011;17930;48.592;8.868;2022-09-12T06:23:36;37.10;;;14.53;;
6828;SDS011;17930;48.592;8.868;2022-09-12T06:26:05;63.83;;;16.37;;
6828;SDS011;17930;48.592;8.868;2022-09-12T06:28:34;52.50;;;15.90;;
6828;SDS011;17930;48.592;8.868;2022-09-12T06:31:02;45.50;;;15.60;;
6828;SDS011;17930;48.592;8.868;2022-09-12T06:33:30;50.67;;;14.07;;
6828;SDS011;17930;48.592;8.868;2022-09-12T06:36:01;44.80;;;15.03;;
6828;SDS011;17930;48.592;8.868;2022-09-12T06:38:28;37.77;;;14.47;;
6828;SDS011;17930;48.592;8.868;2022-09-12T06:40:55;35.33;;;13.87;;
6828;SDS011;17930;48.592;8.868;2022-09-12T06:43:23;59.97;;;15.63;;
6828;SDS011;17930;48.592;8.868;2022-09-12T06:45:50;23.60;;;12.70;;
6828;SDS011;17930;48.592;8.868;2022-09-12T06:48:17;61.03;;;14.37;;
6828;SDS011;17930;48.592;8.868;2022-09-12T06:50:53;26.03;;;12.47;;
6828;SDS011;17930;48.592;8.868;2022-09-12T06:53:20;25.60;;;11.80;;
6828;SDS011;17930;48.592;8.868;2022-09-12T06:55:53;17.90;;;11.43;;
6828;SDS011;17930;48.592;8.868;2022-09-12T06:58:20;24.57;;;12.57;;
6828;SDS011;17930;48.592;8.868;2022-09-12T07:00:49;29.47;;;12.90;;
6828;SDS011;17930;48.592;8.868;2022-09-12T07:03:16;28.50;;;13.27;;
6828;SDS011;17930;48.592;8.868;2022-09-12T07:06:03;32.30;;;12.63;;
6828;SDS011;17930;48.592;8.868;2022-09-12T07:09:04;31.37;;;14.53;;
6828;SDS011;17930;48.592;8.868;2022-09-12T07:12:01;32.60;;;13.17;;
6828;SDS011;17930;48.592;8.868;2022-09-12T07:14:55;29.33;;;11.07;;
6828;SDS011;17930;48.592;8.868;2022-09-12T07:26:50;24.23;;;10.57;;
6828;SDS011;17930;48.592;8.868;2022-09-12T07:29:17;12.37;;;9.53;;
6828;SDS011;17930;48.592;8.868;2022-09-12T07:31:45;16.03;;;9.17;;
6828;SDS011;17930;48.592;8.868;2022-09-12T07:34:12;15.73;;;9.53;;
6828;SDS011;17930;48.592;8.868;2022-09-12T07:36:39;11.03;;;9.80;;
6828;SDS011;17930;48.592;8.868;2022-09-12T07:39:06;13.10;;;8.93;;
6828;SDS011;17930;48.592;8.868;2022-09-12T07:41:33;9.53;;;8.03;;
6828;SDS011;17930;48.592;8.868;2022-09-12T07:44:02;8.90;;;7.93;;
6828;SDS011;17930;48.592;8.868;2022-09-12T07:46:30;10.77;;;7.60;;
6828;SDS011;17930;48.592;8.868;2022-09-12T07:48:58;10.67;;;8.73;;
6828;SDS011;17930;48.592;8.868;2022-09-12T07:51:26;15.30;;;8.80;;
6828;SDS011;17930;48.592;8.868;2022-09-12T07:53:53;13.20;;;9.43;;
6828;SDS011;17930;48.592;8.868;2022-09-12T07:56:21;12.83;;;8.70;;
6828;SDS011;17930;48.592;8.868;2022-09-12T07:58:48;9.80;;;8.80;;
6828;SDS011;17930;48.592;8.868;2022-09-12T08:01:17;8.90;;;8.00;;
6828;SDS011;17930;48.592;8.868;2022-09-12T08:03:45;16.27;;;9.03;;
6828;SDS011;17930;48.592;8.868;2022-09-12T08:06:14;15.47;;;9.20;;
6828;SDS011;17930;48.592;8.868;2022-09-12T08:08:44;9.63;;;8.57;;
6828;SDS011;17930;48.592;8.868;2022-09-12T08:11:11;10.83;;;9.47;;
6828;SDS011;17930;48.592;8.868;2022-09-12T08:13:40;11.73;;;9.10;;
6828;SDS011;17930;48.592;8.868;2022-09-12T08:16:09;10.17;;;9.17;;
6828;SDS011;17930;48.592;8.868;2022-09-12T08:18:39;10.70;;;8.87;;
6828;SDS011;17930;48.592;8.868;2022-09-12T08:21:08;9.87;;;8.87;;
6828;SDS011;17930;48.592;8.868;2022-09-12T08:23:38;12.20;;;9.77;;
6828;SDS011;17930;48.592;8.868;2022-09-12T08:26:05;11.40;;;9.23;;
6828;SDS011;17930;48.592;8.868;2022-09-12T08:28:33;9.70;;;8.73;;
6828;SDS011;17930;48.592;8.868;2022-09-12T08:31:01;9.67;;;8.67;;
6828;SDS011;17930;48.592;8.868;2022-09-12T08:33:28;9.93;;;8.93;;
6828;SDS011;17930;48.592;8.868;2022-09-12T08:36:05;10.27;;;9.30;;
6828;SDS011;17930;48.592;8.868;2022-09-12T08:38:35;9.40;;;8.50;;
6828;SDS011;17930;48.592;8.868;2022-09-12T08:41:03;8.77;;;7.83;;
6828;SDS011;17930;48.592;8.868;2022-09-12T08:43:42;8.90;;;8.00;;
6828;SDS011;17930;48.592;8.868;2022-09-12T08:46:21;8.50;;;7.53;;
6828;SDS011;17930;48.592;8.868;2022-09-12T08:48:49;7.00;;;6.40;;
6828;SDS011;17930;48.592;8.868;2022-09-12T08:51:18;7.43;;;6.77;;
6828;SDS011;17930;48.592;8.868;2022-09-12T08:53:45;6.77;;;6.17;;
6828;SDS011;17930;48.592;8.868;2022-09-12T08:56:14;4.70;;;4.30;;
6828;SDS011;17930;48.592;8.868;2022-09-12T08:58:41;5.50;;;5.00;;
6828;SDS011;17930;48.592;8.868;2022-09-12T09:01:14;4.77;;;4.27;;
6828;SDS011;17930;48.592;8.868;2022-09-12T09:03:56;4.10;;;3.70;;
6828;SDS011;17930;48.592;8.868;2022-09-12T09:06:41;4.03;;;3.73;;
6828;SDS011;17930;48.592;8.868;2022-09-12T09:09:31;3.70;;;3.10;;
6828;SDS011;17930;48.592;8.868;2022-09-12T09:12:09;3.40;;;3.10;;
6828;SDS011;17930;48.592;8.868;2022-09-12T09:14:47;3.03;;;2.83;;
6828;SDS011;17930;48.592;8.868;2022-09-12T09:17:27;4.07;;;2.60;;
6828;SDS011;17930;48.592;8.868;2022-09-12T09:20:00;2.40;;;2.07;;
6828;SDS011;17930;48.592;8.868;2022-09-12T09:22:38;2.00;;;1.80;;
6828;SDS011;17930;48.592;8.868;2022-09-12T09:25:10;3.27;;;2.03;;
6828;SDS011;17930;48.592;8.868;2022-09-12T09:27:44;1.90;;;1.80;;
6828;SDS011;17930;48.592;8.868;2022-09-12T09:30:17;2.20;;;2.00;;
6828;SDS011;17930;48.592;8.868;2022-09-12T09:32:47;2.60;;;2.40;;
6828;SDS011;17930;48.592;8.868;2022-09-12T09:35:19;2.20;;;2.00;;
6828;SDS011;17930;48.592;8.868;2022-09-12T09:37:57;3.27;;;2.10;;
6828;SDS011;17930;48.592;8.868;2022-09-12T09:40:29;2.30;;;1.90;;
6828;SDS011;17930;48.592;8.868;2022-09-12T09:43:09;2.00;;;1.80;;
6828;SDS011;17930;48.592;8.868;2022-09-12T09:45:47;2.50;;;1.70;;
6828;SDS011;17930;48.592;8.868;2022-09-12T09:48:15;1.57;;;1.47;;
6828;SDS011;17930;48.592;8.868;2022-09-12T09:50:43;2.40;;;2.20;;
6828;SDS011;17930;48.592;8.868;2022-09-12T09:53:17;2.43;;;2.23;;
6828;SDS011;17930;48.592;8.868;2022-09-12T09:55:52;2.00;;;1.80;;
6828;SDS011;17930;48.592;8.868;2022-09-12T09:58:31;1.80;;;1.70;;
6828;SDS011;17930;48.592;8.868;2022-09-12T10:01:00;2.03;;;1.80;;
6828;SDS011;17930;48.592;8.868;2022-09-12T10:03:29;2.40;;;1.80;;
6828;SDS011;17930;48.592;8.868;2022-09-12T10:05:59;1.83;;;1.73;;
6828;SDS011;17930;48.592;8.868;2022-09-12T10:08:29;1.97;;;1.77;;
6828;SDS011;17930;48.592;8.868;2022-09-12T10:11:00;1.97;;;1.87;;
6828;SDS011;17930;48.592;8.868;2022-09-12T10:13:36;1.60;;;1.40;;
6828;SDS011;17930;48.592;8.868;2022-09-12T10:16:06;1.60;;;1.50;;
6828;SDS011;17930;48.592;8.868;2022-09-12T10:18:44;1.80;;;1.70;;
6828;SDS011;17930;48.592;8.868;2022-09-12T10:21:15;2.77;;;1.70;;
6828;SDS011;17930;48.592;8.868;2022-09-12T10:23:49;1.70;;;1.60;;
6828;SDS011;17930;48.592;8.868;2022-09-12T10:26:24;1.40;;;1.30;;
6828;SDS011;17930;48.592;8.868;2022-09-12T10:28:53;1.40;;;1.30;;
6828;SDS011;17930;48.592;8.868;2022-09-12T10:31:25;1.63;;;1.53;;
6828;SDS011;17930;48.592;8.868;2022-09-12T10:33:54;1.50;;;1.40;;
6828;SDS011;17930;48.592;8.868;2022-09-12T10:36:24;1.63;;;1.53;;
6828;SDS011;17930;48.592;8.868;2022-09-12T10:38:53;1.73;;;1.47;;
6828;SDS011;17930;48.592;8.868;2022-09-12T10:41:24;1.70;;;1.37;;
6828;SDS011;17930;48.592;8.868;2022-09-12T10:43:51;1.40;;;1.30;;
6828;SDS011;17930;48.592;8.868;2022-09-12T10:51:49;1.67;;;1.57;;
6828;SDS011;17930;48.592;8.868;2022-09-12T10:54:20;1.50;;;1.40;;
6828;SDS011;17930;48.592;8.868;2022-09-12T11:00:01;1.70;;;1.60;;
6828;SDS011;17930;48.592;8.868;2022-09-12T11:02:42;2.13;;;1.40;;
6828;SDS011;17930;48.592;8.868;2022-09-12T11:05:18;1.67;;;1.30;;
6828;SDS011;17930;48.592;8.868;2022-09-12T11:08:05;1.30;;;1.20;;
6828;SDS011;17930;48.592;8.868;2022-09-12T11:10:56;2.23;;;1.50;;
6828;SDS011;17930;48.592;8.868;2022-09-12T11:13:32;1.30;;;1.20;;
6828;SDS011;17930;48.592;8.868;2022-09-12T11:16:20;1.40;;;1.30;;
6828;SDS011;17930;48.592;8.868;2022-09-12T11:19:00;1.87;;;1.50;;
6828;SDS011;17930;48.592;8.868;2022-09-12T11:21:45;1.40;;;1.30;;
6828;SDS011;17930;48.592;8.868;2022-09-12T11:24:23;0.97;;;0.97;;
6828;SDS011;17930;48.592;8.868;2022-09-12T11:27:07;1.73;;;1.00;;
6828;SDS011;17930;48.592;8.868;2022-09-12T11:29:46;1.40;;;1.30;;
6828;SDS011;17930;48.592;8.868;2022-09-12T11:32:32;1.47;;;1.00;;
6828;SDS011;17930;48.592;8.868;2022-09-12T11:35:15;1.30;;;1.20;;
6828;SDS011;17930;48.592;8.868;2022-09-12T11:37:58;1.47;;;1.10;;
6828;SDS011;17930;48.592;8.868;2022-09-12T11:40:36;0.87;;;0.80;;
6828;SDS011;17930;48.592;8.868;2022-09-12T11:43:19;1.27;;;1.07;;
6828;SDS011;17930;48.592;8.868;2022-09-12T11:45:56;1.20;;;1.10;;
6828;SDS011;17930;48.592;8.868;2022-09-12T11:48:34;1.30;;;1.20;;
6828;SDS011;17930;48.592;8.868;2022-09-12T11:51:14;1.17;;;1.00;;
6828;SDS011;17930;48.592;8.868;2022-09-12T11:53:44;0.90;;;0.90;;
6828;SDS011;17930;48.592;8.868;2022-09-12T11:56:18;1.07;;;0.97;;
6828;SDS011;17930;48.592;8.868;2022-09-12T11:58:48;1.40;;;1.30;;
6828;SDS011;17930;48.592;8.868;2022-09-12T12:01:20;1.30;;;1.20;;
6828;SDS011;17930;48.592;8.868;2022-09-12T12:03:50;1.67;;;1.50;;
6828;SDS011;17930;48.592;8.868;2022-09-12T12:06:20;1.57;;;1.30;;
6828;SDS011;17930;48.592;8.868;2022-09-12T12:08:53;1.70;;;1.60;;
6828;SDS011;17930;48.592;8.868;2022-09-12T12:11:25;2.80;;;1.83;;
6828;SDS011;17930;48.592;8.868;2022-09-12T12:13:58;2.97;;;1.40;;
6828;SDS011;17930;48.592;8.868;2022-09-12T12:16:27;3.13;;;1.27;;
6828;SDS011;17930;48.592;8.868;2022-09-12T12:18:58;1.43;;;1.33;;
6828;SDS011;17930;48.592;8.868;2022-09-12T12:21:37;1.30;;;1.20;;
6828;SDS011;17930;48.592;8.868;2022-09-12T12:24:16;1.90;;;1.10;;
6828;SDS011;17930;48.592;8.868;2022-09-12T12:26:56;1.67;;;1.20;;
6828;SDS011;17930;48.592;8.868;2022-09-12T12:29:39;1.35;;;1.08;;
6828;SDS011;17930;48.592;8.868;2022-09-12T12:32:21;1.20;;;1.10;;
6828;SDS011;17930;48.592;8.868;2022-09-12T12:35:00;1.75;;;0.98;;
6828;SDS011;17930;48.592;8.868;2022-09-12T12:37:49;0.90;;;0.90;;
6828;SDS011;17930;48.592;8.868;2022-09-12T12:40:25;1.20;;;1.10;;
6828;SDS011;17930;48.592;8.868;2022-09-12T12:43:03;0.90;;;0.90;;
6828;SDS011;17930;48.592;8.868;2022-09-12T12:51:38;1.57;;;1.10;;
6828;SDS011;17930;48.592;8.868;2022-09-12T12:59:48;2.73;;;0.87;;
6828;SDS011;17930;48.592;8.868;2022-09-12T13:02:20;1.20;;;1.00;;
6828;SDS011;17930;48.592;8.868;2022-09-12T13:04:50;1.13;;;1.00;;
6828;SDS011;17930;48.592;8.868;2022-09-12T13:07:23;1.33;;;1.00;;
6828;SDS011;17930;48.592;8.868;2022-09-12T13:09:55;0.90;;;0.90;;
6828;SDS011;17930;48.592;8.868;2022-09-12T13:12:24;1.07;;;0.97;;
6828;SDS011;17930;48.592;8.868;2022-09-12T13:14:53;1.97;;;1.00;;
6828;SDS011;17930;48.592;8.868;2022-09-12T13:17:23;1.00;;;0.90;;
6828;SDS011;17930;48.592;8.868;2022-09-12T13:20:01;1.27;;;1.17;;
6828;SDS011;17930;48.592;8.868;2022-09-12T13:22:44;1.27;;;1.10;;
6828;SDS011;17930;48.592;8.868;2022-09-12T13:25:23;1.63;;;1.07;;
6828;SDS011;17930;48.592;8.868;2022-09-12T13:27:56;2.27;;;1.20;;
6828;SDS011;17930;48.592;8.868;2022-09-12T13:30:24;1.17;;;1.07;;
6828;SDS011;17930;48.592;8.868;2022-09-12T13:32:55;1.30;;;1.20;;
6828;SDS011;17930;48.592;8.868;2022-09-12T13:35:26;1.17;;;1.07;;
6828;SDS011;17930;48.592;8.868;2022-09-12T13:38:03;1.00;;;1.00;;
6828;SDS011;17930;48.592;8.868;2022-09-12T13:40:40;1.77;;;1.20;;
6828;SDS011;17930;48.592;8.868;2022-09-12T13:43:22;0.90;;;0.90;;
6828;SDS011;17930;48.592;8.868;2022-09-12T13:46:00;3.80;;;1.27;;
6828;SDS011;17930;48.592;8.868;2022-09-12T13:48:28;1.43;;;1.10;;
6828;SDS011;17930;48.592;8.868;2022-09-12T13:50:55;2.07;;;1.07;;
6828;SDS011;17930;48.592;8.868;2022-09-12T13:53:26;1.30;;;1.20;;
6828;SDS011;17930;48.592;8.868;2022-09-12T13:55:56;1.13;;;1.03;;
6828;SDS011;17930;48.592;8.868;2022-09-12T13:58:25;1.40;;;1.13;;
6828;SDS011;17930;48.592;8.868;2022-09-12T14:01:00;1.83;;;1.40;;
6828;SDS011;17930;48.592;8.868;2022-09-12T14:03:32;1.87;;;1.27;;
6828;SDS011;17930;48.592;8.868;2022-09-12T14:06:17;1.37;;;1.13;;
6828;SDS011;17930;48.592;8.868;2022-09-12T14:08:45;1.30;;;1.20;;
6828;SDS011;17930;48.592;8.868;2022-09-12T14:11:17;2.10;;;1.33;;
6828;SDS011;17930;48.592;8.868;2022-09-12T14:13:50;1.10;;;1.00;;
6828;SDS011;17930;48.592;8.868;2022-09-12T14:16:17;1.30;;;1.20;;
6828;SDS011;17930;48.592;8.868;2022-09-12T14:18:47;1.27;;;1.17;;
6828;SDS011;17930;48.592;8.868;2022-09-12T14:21:17;1.63;;;1.10;;
6828;SDS011;17930;48.592;8.868;2022-09-12T14:23:55;1.27;;;1.17;;
6828;SDS011;17930;48.592;8.868;2022-09-12T14:26:23;1.23;;;0.90;;
6828;SDS011;17930;48.592;8.868;2022-09-12T14:28:52;1.30;;;1.20;;
6828;SDS011;17930;48.592;8.868;2022-09-12T14:31:21;1.40;;;1.30;;
6828;SDS011;17930;48.592;8.868;2022-09-12T14:33:51;1.30;;;1.20;;
6828;SDS011;17930;48.592;8.868;2022-09-12T14:36:20;2.80;;;1.37;;
6828;SDS011;17930;48.592;8.868;2022-09-12T14:38:51;1.93;;;1.20;;
6828;SDS011;17930;48.592;8.868;2022-09-12T14:41:20;1.17;;;1.03;;
6828;SDS011;17930;48.592;8.868;2022-09-12T14:43:50;1.20;;;1.10;;
6828;SDS011;17930;48.592;8.868;2022-09-12T14:46:21;2.73;;;1.03;;
6828;SDS011;17930;48.592;8.868;2022-09-12T14:48:53;1.33;;;1.10;;
6828;SDS011;17930;48.592;8.868;2022-09-12T14:51:26;1.20;;;1.10;;
6828;SDS011;17930;48.592;8.868;2022-09-12T14:53:56;3.33;;;1.30;;
6828;SDS011;17930;48.592;8.868;2022-09-12T14:56:36;1.07;;;0.97;;
6828;SDS011;17930;48.592;8.868;2022-09-12T15:01:49;1.20;;;1.10;;
6828;SDS011;17930;48.592;8.868;2022-09-12T15:04:37;1.63;;;1.20;;
6828;SDS011;17930;48.592;8.868;2022-09-12T15:07:12;1.53;;;1.10;;
6828;SDS011;17930;48.592;8.868;2022-09-12T15:09:39;1.10;;;1.10;;
6828;SDS011;17930;48.592;8.868;2022-09-12T15:12:07;1.10;;;1.00;;
6828;SDS011;17930;48.592;8.868;2022-09-12T15:14:34;2.20;;;1.03;;
6828;SDS011;17930;48.592;8.868;2022-09-12T15:17:01;1.87;;;1.20;;
6828;SDS011;17930;48.592;8.868;2022-09-12T15:19:27;1.10;;;1.00;;
6828;SDS011;17930;48.592;8.868;2022-09-12T15:21:56;0.90;;;0.90;;
6828;SDS011;17930;48.592;8.868;2022-09-12T15:24:23;1.70;;;1.17;;
6828;SDS011;17930;48.592;8.868;2022-09-12T15:26:50;1.90;;;1.00;;
6828;SDS011;17930;48.592;8.868;2022-09-12T15:29:17;1.13;;;0.80;;
6828;SDS011;17930;48.592;8.868;2022-09-12T15:31:44;1.03;;;0.90;;
6828;SDS011;17930;48.592;8.868;2022-09-12T15:34:12;1.10;;;1.00;;
6828;SDS011;17930;48.592;8.868;2022-09-12T15:36:39;1.03;;;0.93;;
6828;SDS011;17930;48.592;8.868;2022-09-12T15:39:07;2.73;;;1.10;;
6828;SDS011;17930;48.592;8.868;2022-09-12T15:41:35;3.00;;;1.27;;
6828;SDS011;17930;48.592;8.868;2022-09-12T15:44:03;5.63;;;1.30;;
6828;SDS011;17930;48.592;8.868;2022-09-12T15:46:30;1.10;;;1.00;;
6828;SDS011;17930;48.592;8.868;2022-09-12T15:48:57;0.93;;;0.90;;
6828;SDS011;17930;48.592;8.868;2022-09-12T15:51:23;2.27;;;0.90;;
6828;SDS011;17930;48.592;8.868;2022-09-12T15:53:50;1.20;;;1.00;;